createdAt,value
2022-11-30T00:00:43.408Z,24.50
2022-11-30T00:03:28.127Z,25.60
2022-11-30T00:06:07.949Z,22.00
2022-11-30T00:08:42.990Z,22.80
2022-11-30T00:11:21.299Z,23.80
2022-11-30T00:16:27.717Z,24.10
2022-11-30T00:19:01.483Z,21.60
2022-11-30T00:21:35.240Z,22.80
2022-11-30T00:24:09.475Z,22.10
2022-11-30T00:26:42.916Z,23.80
2022-11-30T00:29:16.459Z,23.20
2022-11-30T00:31:50.290Z,22.70
2022-11-30T00:34:23.733Z,23.60
2022-11-30T00:36:57.302Z,24.90
2022-11-30T00:39:35.490Z,24.40
2022-11-30T00:42:09.776Z,26.10
2022-11-30T00:44:44.338Z,23.50
2022-11-30T00:47:18.320Z,26.00
2022-11-30T00:49:51.879Z,27.50
2022-11-30T00:52:25.710Z,24.50
2022-11-30T00:55:03.674Z,23.70
2022-11-30T00:57:38.063Z,24.30
2022-11-30T01:00:14.163Z,24.10
2022-11-30T01:02:47.816Z,25.00
2022-11-30T01:05:21.345Z,26.20
2022-11-30T01:07:55.283Z,26.00
2022-11-30T01:10:28.903Z,27.10
2022-11-30T01:13:02.584Z,26.30
2022-11-30T01:15:39.865Z,25.40
2022-11-30T01:18:13.660Z,24.70
2022-11-30T01:20:47.260Z,25.50
2022-11-30T01:23:20.616Z,27.00
2022-11-30T01:25:59.121Z,25.60
2022-11-30T01:31:07.351Z,27.00
2022-11-30T01:33:42.135Z,25.20
2022-11-30T01:36:17.797Z,26.30
2022-11-30T01:38:53.373Z,24.60
2022-11-30T01:41:28.579Z,26.70
2022-11-30T01:44:52.714Z,24.40
2022-11-30T01:47:30.498Z,24.70
2022-11-30T01:50:09.296Z,24.60
2022-11-30T01:52:45.520Z,24.20
2022-11-30T01:55:26.044Z,24.50
2022-11-30T01:58:03.806Z,26.20
2022-11-30T02:00:37.521Z,23.70
2022-11-30T02:03:26.197Z,26.70
2022-11-30T02:06:01.161Z,27.90
2022-11-30T02:08:35.845Z,25.50
2022-11-30T02:11:14.520Z,27.80
2022-11-30T02:16:37.923Z,25.40
2022-11-30T02:19:43.471Z,24.10
2022-11-30T02:22:31.959Z,23.10
2022-11-30T02:28:08.834Z,19.70
2022-11-30T02:30:48.925Z,22.70
2022-11-30T02:33:27.399Z,21.90
2022-11-30T02:36:03.726Z,23.70
2022-11-30T02:38:37.807Z,22.80
2022-11-30T02:41:11.755Z,23.10
2022-11-30T02:43:45.849Z,25.70
2022-11-30T02:46:24.876Z,24.00
2022-11-30T02:49:06.836Z,23.60
2022-11-30T02:51:43.026Z,22.90
2022-11-30T02:54:16.768Z,25.50
2022-11-30T02:56:50.406Z,23.80
2022-11-30T02:59:24.042Z,23.70
2022-11-30T03:01:57.858Z,26.50
2022-11-30T03:04:31.598Z,25.50
2022-11-30T03:07:05.518Z,24.20
2022-11-30T03:09:39.041Z,23.30
2022-11-30T03:12:12.546Z,25.70
2022-11-30T03:14:46.320Z,22.00
2022-11-30T03:17:20.327Z,23.80
2022-11-30T03:19:54.320Z,22.10
2022-11-30T03:22:28.076Z,25.00
2022-11-30T03:25:01.599Z,22.90
2022-11-30T03:27:34.915Z,22.10
2022-11-30T03:30:10.250Z,23.20
2022-11-30T03:32:44.160Z,22.60
2022-11-30T03:35:17.523Z,22.50
2022-11-30T03:37:51.268Z,21.60
2022-11-30T03:40:25.073Z,22.50
2022-11-30T03:42:58.754Z,20.60
2022-11-30T03:45:32.326Z,25.80
2022-11-30T03:48:05.887Z,24.10
2022-11-30T03:50:39.231Z,22.70
2022-11-30T03:53:12.652Z,23.30
2022-11-30T03:55:46.388Z,22.10
2022-11-30T03:58:19.942Z,20.10
2022-11-30T04:01:00.104Z,21.70
2022-11-30T04:03:34.444Z,23.90
2022-11-30T04:06:09.341Z,24.00
2022-11-30T04:08:43.281Z,22.70
2022-11-30T04:11:17.683Z,25.20
2022-11-30T04:13:51.277Z,24.10
2022-11-30T04:16:24.820Z,25.30
2022-11-30T04:18:58.174Z,30.30
2022-11-30T04:21:31.985Z,24.90
2022-11-30T04:24:05.960Z,24.90
2022-11-30T04:26:39.793Z,23.50
2022-11-30T04:29:13.360Z,24.40
2022-11-30T04:31:46.814Z,24.40
2022-11-30T04:34:20.532Z,24.20
2022-11-30T04:36:58.837Z,25.20
2022-11-30T04:39:36.959Z,22.10
2022-11-30T04:42:11.087Z,23.60
2022-11-30T04:44:44.700Z,24.50
2022-11-30T04:47:18.549Z,26.80
2022-11-30T04:49:51.875Z,21.60
2022-11-30T04:52:25.716Z,26.60
2022-11-30T04:54:59.594Z,21.90
2022-11-30T04:57:33.602Z,26.30
2022-11-30T05:00:08.787Z,24.10
2022-11-30T05:02:43.159Z,24.10
2022-11-30T05:05:19.650Z,24.00
2022-11-30T05:07:56.617Z,24.80
2022-11-30T05:10:30.634Z,25.50
2022-11-30T05:13:04.400Z,21.40
2022-11-30T05:15:37.894Z,24.70
2022-11-30T05:18:11.166Z,22.90
2022-11-30T05:20:48.588Z,23.70
2022-11-30T05:23:22.971Z,22.00
2022-11-30T05:25:56.535Z,24.90
2022-11-30T05:28:29.974Z,24.50
2022-11-30T05:31:07.567Z,23.20
2022-11-30T05:33:41.520Z,22.50
2022-11-30T05:36:14.931Z,24.90
2022-11-30T05:38:48.818Z,24.00
2022-11-30T05:41:22.750Z,22.40
2022-11-30T05:43:56.485Z,21.30
2022-11-30T05:46:29.932Z,22.90
2022-11-30T05:49:03.810Z,23.00
2022-11-30T05:51:37.878Z,24.60
2022-11-30T05:54:11.453Z,25.50
2022-11-30T05:56:47.020Z,21.00
2022-11-30T05:59:24.353Z,22.20
2022-11-30T06:01:58.438Z,21.60
2022-11-30T06:04:32.273Z,26.00
2022-11-30T06:07:05.899Z,23.90
2022-11-30T06:09:39.727Z,23.80
2022-11-30T06:12:13.878Z,24.90
2022-11-30T06:14:47.739Z,23.50
2022-11-30T06:17:21.402Z,22.60
2022-11-30T06:19:54.993Z,23.70
2022-11-30T06:22:28.769Z,24.10
2022-11-30T06:25:02.470Z,22.90
2022-11-30T06:27:36.352Z,23.40
2022-11-30T06:30:12.774Z,23.50
2022-11-30T06:32:50.329Z,24.20
2022-11-30T06:35:24.034Z,22.50
2022-11-30T06:37:58.433Z,23.10
2022-11-30T06:40:32.941Z,22.20
2022-11-30T06:43:06.929Z,22.60
2022-11-30T06:45:40.717Z,21.20
2022-11-30T06:48:14.861Z,22.50
2022-11-30T06:50:50.165Z,20.00
2022-11-30T06:53:23.810Z,20.00
2022-11-30T06:55:57.870Z,22.80
2022-11-30T06:58:31.730Z,21.60
2022-11-30T07:01:07.284Z,23.00
2022-11-30T07:03:41.045Z,22.10
2022-11-30T07:06:16.175Z,24.00
2022-11-30T07:08:50.366Z,26.90
2022-11-30T07:11:23.947Z,25.90
2022-11-30T07:13:57.323Z,24.30
2022-11-30T07:16:31.120Z,23.20
2022-11-30T07:19:04.546Z,23.30
2022-11-30T07:21:38.346Z,23.30
2022-11-30T07:24:30.840Z,27.00
2022-11-30T07:27:05.609Z,23.70
2022-11-30T07:29:39.366Z,25.00
2022-11-30T07:32:12.952Z,25.50
2022-11-30T07:34:46.901Z,25.70
2022-11-30T07:37:20.344Z,23.50
2022-11-30T07:39:53.749Z,23.50
2022-11-30T07:42:27.452Z,26.30
2022-11-30T07:45:01.082Z,25.60
2022-11-30T07:47:36.325Z,25.40
2022-11-30T07:50:11.747Z,28.40
2022-11-30T07:52:45.354Z,25.90
2022-11-30T07:55:20.490Z,27.10
2022-11-30T07:57:54.641Z,22.90
2022-11-30T08:00:28.216Z,27.30
2022-11-30T08:03:01.948Z,26.30
2022-11-30T08:05:35.767Z,24.50
2022-11-30T08:08:09.288Z,27.10
2022-11-30T08:10:42.819Z,25.00
2022-11-30T08:13:16.040Z,25.20
2022-11-30T08:15:49.754Z,22.70
2022-11-30T08:18:23.448Z,22.50
2022-11-30T08:21:03.139Z,26.40
2022-11-30T08:23:38.941Z,25.30
2022-11-30T08:26:15.162Z,29.60
2022-11-30T08:28:50.338Z,25.50
2022-11-30T08:31:26.268Z,27.30
2022-11-30T08:34:01.572Z,25.20
2022-11-30T08:36:36.162Z,26.90
2022-11-30T08:39:13.824Z,24.80
2022-11-30T08:41:47.464Z,28.50
2022-11-30T08:44:21.133Z,25.80
2022-11-30T08:46:54.748Z,28.30
2022-11-30T08:49:28.634Z,26.40
2022-11-30T08:52:17.134Z,28.40
2022-11-30T08:54:52.487Z,24.80
2022-11-30T08:57:27.088Z,24.60
2022-11-30T09:00:00.457Z,24.60
2022-11-30T09:02:34.289Z,24.50
2022-11-30T09:05:08.891Z,23.70
2022-11-30T09:07:42.617Z,22.20
2022-11-30T09:10:16.470Z,24.10
2022-11-30T09:12:50.028Z,24.50
2022-11-30T09:15:24.005Z,24.20
2022-11-30T09:17:57.964Z,24.00
2022-11-30T09:20:32.045Z,27.00
2022-11-30T09:23:05.571Z,26.30
2022-11-30T09:25:38.967Z,27.20
2022-11-30T09:28:12.977Z,27.30
2022-11-30T09:30:46.320Z,25.70
2022-11-30T09:33:19.918Z,24.30
2022-11-30T09:36:00.713Z,25.60
2022-11-30T09:38:34.265Z,24.30
2022-11-30T09:41:16.933Z,24.00
2022-11-30T09:43:57.605Z,24.30
2022-11-30T09:46:38.566Z,23.90
2022-11-30T09:49:17.367Z,21.20
2022-11-30T09:51:52.785Z,22.20
2022-11-30T09:54:35.761Z,24.10
2022-11-30T09:57:27.339Z,24.70
2022-11-30T10:00:05.129Z,26.70
2022-11-30T10:02:47.399Z,25.70
2022-11-30T10:05:25.307Z,25.30
2022-11-30T10:08:25.759Z,26.10
2022-11-30T10:11:12.401Z,26.40
2022-11-30T10:13:59.173Z,26.10
2022-11-30T10:16:46.987Z,24.90
2022-11-30T10:19:29.750Z,24.80
2022-11-30T10:22:15.791Z,25.50
2022-11-30T10:25:01.132Z,24.80
2022-11-30T10:27:48.997Z,25.40
2022-11-30T10:30:24.844Z,21.70
2022-11-30T10:33:02.708Z,19.60
2022-11-30T10:35:42.448Z,19.30
2022-11-30T10:38:20.512Z,20.30
2022-11-30T10:40:59.479Z,20.10
2022-11-30T10:43:38.999Z,19.20
2022-11-30T10:46:23.351Z,21.50
2022-11-30T10:49:00.488Z,20.70
2022-11-30T10:51:36.288Z,17.90
2022-11-30T10:54:19.201Z,19.40
2022-11-30T10:56:52.819Z,20.20
2022-11-30T10:59:29.430Z,22.40
2022-11-30T11:02:03.667Z,21.50
2022-11-30T11:04:37.610Z,21.40
2022-11-30T11:07:16.195Z,21.90
2022-11-30T11:09:52.177Z,19.70
2022-11-30T11:12:31.266Z,21.00
2022-11-30T11:15:19.980Z,19.30
2022-11-30T11:17:54.691Z,20.40
2022-11-30T11:20:43.007Z,18.60
2022-11-30T11:25:57.945Z,19.30
2022-11-30T11:28:32.385Z,22.20
2022-11-30T11:31:20.663Z,20.70
2022-11-30T11:33:58.073Z,19.70
2022-11-30T11:36:33.215Z,20.60
2022-11-30T11:39:26.536Z,20.30
2022-11-30T11:42:01.515Z,18.80
2022-11-30T11:44:35.252Z,20.90
2022-11-30T11:47:24.665Z,19.20
2022-11-30T11:50:50.236Z,19.10
2022-11-30T11:53:26.534Z,21.90
2022-11-30T11:56:04.414Z,21.50
2022-11-30T11:58:44.708Z,20.90
2022-11-30T12:01:40.717Z,21.30
2022-11-30T12:04:43.491Z,21.60
2022-11-30T12:07:30.232Z,23.50
2022-11-30T12:10:51.306Z,20.70
2022-11-30T12:13:24.751Z,23.20
2022-11-30T12:16:10.786Z,20.50
2022-11-30T12:18:52.263Z,20.80
2022-11-30T12:21:38.282Z,18.30
2022-11-30T12:24:38.278Z,21.70
2022-11-30T12:27:24.493Z,19.10
2022-11-30T12:30:10.498Z,17.50
2022-11-30T12:33:03.004Z,19.00
2022-11-30T12:35:45.688Z,18.90
2022-11-30T12:38:28.148Z,19.00
2022-11-30T12:41:09.623Z,18.20
2022-11-30T12:43:54.177Z,19.40
2022-11-30T12:46:37.241Z,18.30
2022-11-30T12:49:24.388Z,20.20
2022-11-30T12:52:04.743Z,21.50
2022-11-30T12:54:52.931Z,19.90
2022-11-30T12:57:35.534Z,19.80
2022-11-30T13:00:15.800Z,22.80
2022-11-30T13:03:16.637Z,20.50
2022-11-30T13:05:54.689Z,20.60
2022-11-30T13:08:33.258Z,22.60
2022-11-30T13:11:14.296Z,22.90
2022-11-30T13:13:54.737Z,21.30
2022-11-30T13:16:31.592Z,22.60
2022-11-30T13:19:12.997Z,18.70
2022-11-30T13:21:54.707Z,24.40
2022-11-30T13:24:34.880Z,23.30
2022-11-30T13:27:16.178Z,21.50
2022-11-30T13:30:08.543Z,24.60
2022-11-30T13:32:57.973Z,22.80
2022-11-30T13:35:54.350Z,22.50
2022-11-30T13:38:36.742Z,21.50
2022-11-30T13:41:12.381Z,20.00
2022-11-30T13:43:48.448Z,20.60
2022-11-30T13:46:24.109Z,19.90
2022-11-30T13:49:22.386Z,22.30
2022-11-30T13:52:21.527Z,20.40
2022-11-30T13:54:54.467Z,26.10
2022-11-30T13:58:07.349Z,23.60
2022-11-30T14:01:03.002Z,22.10
2022-11-30T14:03:38.822Z,22.00
2022-11-30T14:06:48.918Z,19.50
2022-11-30T14:10:09.004Z,21.20
2022-11-30T14:13:05.651Z,18.60
2022-11-30T14:15:55.613Z,20.30
2022-11-30T14:18:41.327Z,23.60
2022-11-30T14:21:37.880Z,23.30
2022-11-30T14:24:19.890Z,20.80
2022-11-30T14:26:54.613Z,19.90
2022-11-30T14:29:34.999Z,22.40
2022-11-30T14:32:17.605Z,26.20
2022-11-30T14:34:53.087Z,20.90
2022-11-30T14:37:29.445Z,18.90
2022-11-30T14:40:06.831Z,21.90
2022-11-30T14:42:48.787Z,22.10
2022-11-30T14:45:28.764Z,24.80
2022-11-30T14:48:14.386Z,22.60
2022-11-30T14:50:51.330Z,21.50
2022-11-30T14:53:34.906Z,18.30
2022-11-30T14:56:18.042Z,21.30
2022-11-30T14:58:57.652Z,24.30
2022-11-30T15:01:33.665Z,24.00
2022-11-30T15:04:13.421Z,22.00
2022-11-30T15:06:47.367Z,21.60
2022-11-30T15:09:23.915Z,21.90
2022-11-30T15:11:57.892Z,22.80
2022-11-30T15:14:32.467Z,19.90
2022-11-30T15:17:15.579Z,19.10
2022-11-30T15:19:50.596Z,20.30
2022-11-30T15:22:26.561Z,19.50
2022-11-30T15:24:59.962Z,20.80
2022-11-30T15:27:34.043Z,18.60
2022-11-30T15:30:09.552Z,19.60
2022-11-30T15:32:45.541Z,19.40
2022-11-30T15:35:43.698Z,19.10
2022-11-30T15:38:26.350Z,20.70
2022-11-30T15:41:08.774Z,21.80
2022-11-30T15:43:43.499Z,24.70
2022-11-30T15:46:34.251Z,17.30
2022-11-30T15:49:26.545Z,18.00
2022-11-30T15:52:18.846Z,21.60
2022-11-30T15:54:55.478Z,19.60
2022-11-30T15:57:50.718Z,18.50
2022-11-30T16:00:26.233Z,20.60
2022-11-30T16:03:13.100Z,20.30
2022-11-30T16:05:59.154Z,22.00
2022-11-30T16:08:33.869Z,20.20
2022-11-30T16:11:08.702Z,19.90
2022-11-30T16:13:43.878Z,24.10
2022-11-30T16:16:22.499Z,25.90
2022-11-30T16:18:56.919Z,22.10
2022-11-30T16:21:30.749Z,22.70
2022-11-30T16:24:05.348Z,24.40
2022-11-30T16:26:54.079Z,23.70
2022-11-30T16:29:30.830Z,21.50
2022-11-30T16:32:05.533Z,23.30
2022-11-30T16:34:39.928Z,25.40
2022-11-30T16:37:15.634Z,22.60
2022-11-30T16:39:49.493Z,21.90
2022-11-30T16:42:23.438Z,21.40
2022-11-30T16:44:57.419Z,25.50
2022-11-30T16:47:32.048Z,25.70
2022-11-30T16:50:10.848Z,23.30
2022-11-30T16:52:45.910Z,20.70
2022-11-30T16:55:21.826Z,21.10
2022-11-30T16:57:57.033Z,20.60
2022-11-30T17:00:31.425Z,16.90
2022-11-30T17:03:09.746Z,17.90
2022-11-30T17:05:44.017Z,17.90
2022-11-30T17:08:17.863Z,20.50
2022-11-30T17:10:55.103Z,19.20
2022-11-30T17:13:29.978Z,17.70
2022-11-30T17:16:04.428Z,19.40
2022-11-30T17:18:40.631Z,18.30
2022-11-30T17:21:18.360Z,19.60
2022-11-30T17:23:53.372Z,17.40
2022-11-30T17:26:27.977Z,18.30
2022-11-30T17:29:02.427Z,16.90
2022-11-30T17:31:37.482Z,18.40
2022-11-30T17:34:12.075Z,17.20
2022-11-30T17:36:47.021Z,17.20
2022-11-30T17:39:21.600Z,18.60
2022-11-30T17:41:55.498Z,17.00
2022-11-30T17:44:29.352Z,16.10
2022-11-30T17:47:05.245Z,17.00
2022-11-30T17:49:41.433Z,14.70
2022-11-30T17:52:15.224Z,14.30
2022-11-30T17:54:49.717Z,14.70
2022-11-30T17:57:24.827Z,16.20
2022-11-30T17:59:59.230Z,16.50
2022-11-30T18:02:33.941Z,17.30
2022-11-30T18:05:10.196Z,17.50
2022-11-30T18:07:44.363Z,16.10
2022-11-30T18:10:22.188Z,15.50
2022-11-30T18:13:05.031Z,20.80
2022-11-30T18:15:39.587Z,15.40
2022-11-30T18:18:14.421Z,16.00
2022-11-30T18:20:52.270Z,17.50
2022-11-30T18:23:26.710Z,17.00
2022-11-30T18:26:00.983Z,17.10
2022-11-30T18:28:35.863Z,16.20
2022-11-30T18:31:11.049Z,18.10
2022-11-30T18:33:45.099Z,13.70
2022-11-30T18:36:19.656Z,13.10
2022-11-30T18:38:59.298Z,14.60
2022-11-30T18:41:33.875Z,14.00
2022-11-30T18:44:08.301Z,14.60
2022-11-30T18:46:43.247Z,15.40
2022-11-30T18:49:22.143Z,14.40
2022-11-30T18:51:56.964Z,13.90
2022-11-30T18:54:33.231Z,14.30
2022-11-30T18:57:11.340Z,15.20
2022-11-30T18:59:49.811Z,13.90
2022-11-30T19:02:28.253Z,14.90
2022-11-30T19:05:06.805Z,16.00
2022-11-30T19:07:47.946Z,16.70
2022-11-30T19:10:26.702Z,14.50
2022-11-30T19:13:01.661Z,14.30
2022-11-30T19:15:41.701Z,17.60
2022-11-30T19:18:19.256Z,17.00
2022-11-30T19:21:02.857Z,15.40
2022-11-30T19:26:12.178Z,18.10
2022-11-30T19:28:48.374Z,14.20
2022-11-30T19:31:24.459Z,13.60
2022-11-30T19:34:00.095Z,13.80
2022-11-30T19:36:35.524Z,15.30
2022-11-30T19:39:12.502Z,13.30
2022-11-30T19:41:48.736Z,14.80
2022-11-30T19:44:23.782Z,14.70
2022-11-30T19:47:09.760Z,16.80
2022-11-30T19:49:47.620Z,18.30
2022-11-30T19:52:22.247Z,15.60
2022-11-30T19:54:59.019Z,15.40
2022-11-30T19:57:38.215Z,15.90
2022-11-30T20:00:15.659Z,14.30
2022-11-30T20:02:54.341Z,17.20
2022-11-30T20:05:32.103Z,15.20
2022-11-30T20:08:07.312Z,14.90
2022-11-30T20:10:45.239Z,13.20
2022-11-30T20:13:20.057Z,14.30
2022-11-30T20:15:55.377Z,15.30
2022-11-30T20:18:30.059Z,15.40
2022-11-30T20:21:16.466Z,15.30
2022-11-30T20:23:53.860Z,16.50
2022-11-30T20:26:31.338Z,21.20
2022-11-30T20:29:08.058Z,14.00
2022-11-30T20:31:44.089Z,15.80
2022-11-30T20:34:19.576Z,14.60
2022-11-30T20:36:54.047Z,15.60
2022-11-30T20:39:29.140Z,13.60
2022-11-30T20:42:04.886Z,16.20
2022-11-30T20:44:42.053Z,16.80
2022-11-30T20:47:18.576Z,14.80
2022-11-30T20:49:53.183Z,15.30
2022-11-30T20:52:28.231Z,16.40
2022-11-30T20:55:02.690Z,15.80
2022-11-30T20:57:37.057Z,14.20
2022-11-30T21:00:14.108Z,14.60
2022-11-30T21:02:49.030Z,15.50
2022-11-30T21:05:23.831Z,14.80
2022-11-30T21:07:57.754Z,15.50
2022-11-30T21:10:33.808Z,15.30
2022-11-30T21:13:15.540Z,13.90
2022-11-30T21:15:50.043Z,14.90
2022-11-30T21:18:23.868Z,15.70
2022-11-30T21:21:05.125Z,16.60
2022-11-30T21:23:40.269Z,17.10
2022-11-30T21:26:19.648Z,17.80
2022-11-30T21:28:56.426Z,19.40
2022-11-30T21:31:30.931Z,22.00
2022-11-30T21:34:04.954Z,17.40
2022-11-30T21:36:38.484Z,19.30
2022-11-30T21:39:15.509Z,19.00
2022-11-30T21:41:49.653Z,19.10
2022-11-30T21:44:23.868Z,17.30
2022-11-30T21:46:57.477Z,18.30
2022-11-30T21:49:31.470Z,18.50
2022-11-30T21:52:05.317Z,16.00
2022-11-30T21:54:39.044Z,18.10
2022-11-30T21:57:12.392Z,16.10
2022-11-30T21:59:47.033Z,20.80
2022-11-30T22:02:20.829Z,19.10
2022-11-30T22:04:54.659Z,16.90
2022-11-30T22:07:33.239Z,17.50
2022-11-30T22:12:38.795Z,16.30
2022-11-30T22:15:14.992Z,18.00
2022-11-30T22:17:49.012Z,16.10
2022-11-30T22:20:22.538Z,18.30
2022-11-30T22:22:55.911Z,17.90
2022-11-30T22:25:29.714Z,18.70
2022-11-30T22:28:03.445Z,18.80
2022-11-30T22:30:36.910Z,16.60
2022-11-30T22:33:11.398Z,17.90
2022-11-30T22:35:45.056Z,17.40
2022-11-30T22:38:18.536Z,16.30
2022-11-30T22:40:52.159Z,19.50
2022-11-30T22:43:25.787Z,19.50
2022-11-30T22:46:06.101Z,16.80
2022-11-30T22:48:40.673Z,14.60
2022-11-30T22:51:16.279Z,17.70
2022-11-30T22:53:50.236Z,16.30
2022-11-30T22:56:25.540Z,15.30
2022-11-30T22:59:01.124Z,17.50
2022-11-30T23:01:37.043Z,17.50
2022-11-30T23:04:12.361Z,16.60
2022-11-30T23:06:47.364Z,15.10
2022-11-30T23:09:22.942Z,16.50
2022-11-30T23:11:56.913Z,16.60
2022-11-30T23:14:30.606Z,16.90
2022-11-30T23:17:04.340Z,16.40
2022-11-30T23:19:37.957Z,15.60
2022-11-30T23:22:11.373Z,16.40
2022-11-30T23:24:45.078Z,15.60
2022-11-30T23:27:18.747Z,15.50
2022-11-30T23:29:52.419Z,16.10
2022-11-30T23:32:26.117Z,16.10
2022-11-30T23:34:59.681Z,18.00
2022-11-30T23:37:33.268Z,16.10
2022-11-30T23:40:08.937Z,15.90
2022-11-30T23:42:42.584Z,15.40
2022-11-30T23:45:16.511Z,16.30
2022-11-30T23:47:50.084Z,16.30
2022-11-30T23:50:23.438Z,14.70
2022-11-30T23:52:56.859Z,15.20
2022-11-30T23:55:30.804Z,15.10
2022-11-30T23:58:04.511Z,15.70
